This is the latest recevied weather packets stored in our database for station/object N7ZAP. If no packets are shown the sender has not sent any weather packets the latest 10 day(s).
| Time | Temp. | Humidity | Pressure | Rain* | Wind** | Luminosity | Snow |
|---|---|---|---|---|---|---|---|
| 1777388062 | 16.67° C | 20% | 1020.4 hPa | 0 mm | - | - | - |
| 1777387759 | 16.11° C | 19% | 1020.2 hPa | 0 mm | - | - | - |
| 1777387455 | 16.11° C | 19% | 1020.2 hPa | 0 mm | - | - | - |
| 1777387150 | 15.56° C | 19% | 1020.3 hPa | 0 mm | - | - | - |
| 1777386846 | 15° C | 20% | 1020.4 hPa | 0 mm | - | - | - |
| 1777386543 | 14.44° C | 21% | 1020.4 hPa | 0 mm | - | - | - |
| 1777386240 | 13.89° C | 23% | 1020.4 hPa | 0 mm | - | - | - |
| 1777385938 | 12.78° C | 23% | 1020.3 hPa | 0 mm | - | - | - |
| 1777385634 | 12.78° C | 25% | 1020.1 hPa | 0 mm | - | - | - |
| 1777385331 | 12.22° C | 25% | 1020.3 hPa | 0 mm | - | - | - |
| 1777385027 | 11.11° C | 26% | 1019.8 hPa | 0 mm | - | - | - |
| 1777384725 | 10.56° C | 26% | 1020.2 hPa | 0 mm | - | - | - |
| 1777384424 | 10° C | 28% | 1019.9 hPa | 0 mm | - | - | - |
| 1777384120 | 10° C | 28% | 1019.5 hPa | 0 mm | - | - | - |
| 1777383817 | 10.56° C | 29% | 1019.6 hPa | 0 mm | - | - | - |
| 1777383513 | 11.67° C | 27% | 1019.6 hPa | 0 mm | - | - | - |
| 1777383209 | 12.78° C | 24% | 1019.4 hPa | 0 mm | - | - | - |
| 1777382906 | 12.22° C | 26% | 1019.5 hPa | 0 mm | - | - | - |
| 1777382602 | 12.22° C | 24% | 1019.4 hPa | 0 mm | - | - | - |
| 1777382298 | 12.22° C | 25% | 1018.9 hPa | 0 mm | - | - | - |
| 1777381994 | 12.22° C | 24% | 1019 hPa | 0 mm | - | - | - |
| 1777381689 | 11.67° C | 25% | 1018.8 hPa | 0 mm | - | - | - |
| 1777381385 | 10.56° C | 27% | 1018.9 hPa | 0 mm | - | - | - |
| 1777381081 | 10° C | 27% | 1019 hPa | 0 mm | - | - | - |
| 1777380778 | 9.44° C | 27% | 1018.8 hPa | 0 mm | - | - | - |
* Rain latest hour (hover to see other rain measurements)
** Current wind speed in m/s (hover to see current wind gust speed)